createdAt,value
2018-03-02T00:00:44.701Z,987.2
2018-03-02T00:01:46.330Z,987.2
2018-03-02T00:02:47.857Z,987.1
2018-03-02T00:03:49.361Z,987.1
2018-03-02T00:04:50.881Z,987.2
2018-03-02T00:05:52.455Z,987.1
2018-03-02T00:06:54.001Z,987.1
2018-03-02T00:07:55.481Z,987.1
2018-03-02T00:08:56.989Z,987.1
2018-03-02T00:09:58.636Z,987.1
2018-03-02T00:11:00.103Z,987.0
2018-03-02T00:12:01.599Z,987.0
2018-03-02T00:13:03.193Z,987.0
2018-03-02T00:14:04.743Z,987.0
2018-03-02T00:15:06.288Z,987.0
2018-03-02T00:16:08.601Z,987.0
2018-03-02T00:17:10.114Z,987.0
2018-03-02T00:18:11.680Z,986.9
2018-03-02T00:19:13.179Z,987.0
2018-03-02T00:20:14.704Z,987.0
2018-03-02T00:21:16.301Z,986.9
2018-03-02T00:22:17.803Z,987.0
2018-03-02T00:23:19.264Z,987.0
2018-03-02T00:24:20.815Z,987.0
2018-03-02T00:25:22.384Z,987.0
2018-03-02T00:26:23.915Z,987.0
2018-03-02T00:27:25.418Z,986.9
2018-03-02T00:28:26.918Z,986.9
2018-03-02T00:29:28.417Z,986.9
2018-03-02T00:30:29.939Z,986.9
2018-03-02T00:31:31.398Z,986.8
2018-03-02T00:32:32.956Z,986.8
2018-03-02T00:33:34.475Z,986.9
2018-03-02T00:34:35.914Z,986.8
2018-03-02T00:35:37.417Z,986.8
2018-03-02T00:36:39.004Z,986.9
2018-03-02T00:37:40.465Z,986.9
2018-03-02T00:38:41.967Z,986.9
2018-03-02T00:39:43.567Z,986.9
2018-03-02T00:40:45.075Z,986.9
2018-03-02T00:41:46.662Z,986.8
2018-03-02T00:42:48.227Z,986.8
2018-03-02T00:43:49.731Z,986.9
2018-03-02T00:44:51.217Z,986.8
2018-03-02T00:45:52.763Z,986.8
2018-03-02T00:46:54.282Z,986.8
2018-03-02T00:47:55.841Z,986.8
2018-03-02T00:48:57.400Z,986.8
2018-03-02T00:49:58.921Z,986.8
2018-03-02T00:51:00.469Z,986.8
2018-03-02T00:52:02.014Z,986.8
2018-03-02T00:53:03.495Z,986.8
2018-03-02T00:54:05.021Z,986.8
2018-03-02T00:55:06.550Z,986.7
2018-03-02T00:56:08.044Z,986.7
2018-03-02T00:57:09.506Z,986.7
2018-03-02T00:58:10.990Z,986.7
2018-03-02T00:59:12.474Z,986.8
2018-03-02T01:00:13.978Z,986.8
2018-03-02T01:01:15.471Z,986.7
2018-03-02T01:02:16.944Z,986.7
2018-03-02T01:03:18.411Z,986.7
2018-03-02T01:04:20.035Z,986.8
2018-03-02T01:05:21.513Z,986.7
2018-03-02T01:06:23.043Z,986.7
2018-03-02T01:07:24.494Z,986.7
2018-03-02T01:08:26.012Z,986.6
2018-03-02T01:09:27.541Z,986.7
2018-03-02T01:10:29.002Z,986.7
2018-03-02T01:11:30.508Z,986.6
2018-03-02T01:12:31.971Z,986.6
2018-03-02T01:13:33.492Z,986.6
2018-03-02T01:14:34.967Z,986.6
2018-03-02T01:15:36.472Z,986.6
2018-03-02T01:16:37.971Z,986.6
2018-03-02T01:17:39.482Z,986.6
2018-03-02T01:18:41.014Z,986.5
2018-03-02T01:19:42.960Z,986.5
2018-03-02T01:20:44.469Z,986.5
2018-03-02T01:21:45.954Z,986.5
2018-03-02T01:22:47.479Z,986.5
2018-03-02T01:23:49.080Z,986.5
2018-03-02T01:24:50.531Z,986.5
2018-03-02T01:25:52.044Z,986.5
2018-03-02T01:26:53.555Z,986.4
2018-03-02T01:27:55.051Z,986.4
2018-03-02T01:28:56.570Z,986.5
2018-03-02T01:29:58.111Z,986.4
2018-03-02T01:30:59.570Z,986.4
2018-03-02T01:32:01.050Z,986.4
2018-03-02T01:33:02.585Z,986.4
2018-03-02T01:34:04.053Z,986.4
2018-03-02T01:35:05.554Z,986.4
2018-03-02T01:36:07.001Z,986.3
2018-03-02T01:37:08.491Z,986.3
2018-03-02T01:38:09.969Z,986.3
2018-03-02T01:39:11.480Z,986.3
2018-03-02T01:40:12.954Z,986.3
2018-03-02T01:41:14.462Z,986.3
2018-03-02T01:42:15.932Z,986.2
2018-03-02T01:43:17.464Z,986.2
2018-03-02T01:44:18.960Z,986.2
2018-03-02T01:45:20.458Z,986.2
2018-03-02T01:46:21.979Z,986.2
2018-03-02T01:47:23.432Z,986.2
2018-03-02T01:48:24.944Z,986.2
2018-03-02T01:49:26.448Z,986.1
2018-03-02T01:50:27.916Z,986.1
2018-03-02T01:51:29.352Z,986.1
2018-03-02T01:52:30.830Z,986.1
2018-03-02T01:53:32.317Z,986.0
2018-03-02T01:54:33.791Z,986.1
2018-03-02T01:55:35.328Z,986.1
2018-03-02T01:56:36.855Z,986.1
2018-03-02T01:57:38.346Z,986.0
2018-03-02T01:58:39.896Z,986.0
2018-03-02T01:59:41.337Z,986.0
2018-03-02T02:00:42.830Z,985.9
2018-03-02T02:01:44.319Z,986.0
2018-03-02T02:02:45.936Z,985.9
2018-03-02T02:03:47.441Z,985.9
2018-03-02T02:04:48.949Z,985.9
2018-03-02T02:05:50.448Z,985.9
2018-03-02T02:06:51.975Z,985.9
2018-03-02T02:07:53.509Z,985.9
2018-03-02T02:08:54.980Z,985.9
2018-03-02T02:09:56.512Z,985.9
2018-03-02T02:10:58.048Z,985.9
2018-03-02T02:11:59.537Z,985.9
2018-03-02T02:13:01.017Z,985.9
2018-03-02T02:14:02.459Z,985.9
2018-03-02T02:15:03.945Z,985.9
2018-03-02T02:16:05.443Z,985.9
2018-03-02T02:17:06.942Z,985.9
2018-03-02T02:18:08.410Z,985.9
2018-03-02T02:19:09.890Z,985.9
2018-03-02T02:20:11.422Z,985.9
2018-03-02T02:21:12.932Z,985.9
2018-03-02T02:22:14.460Z,985.8
2018-03-02T02:23:15.997Z,985.9
2018-03-02T02:24:17.481Z,985.8
2018-03-02T02:25:18.935Z,985.8
2018-03-02T02:26:20.465Z,985.9
2018-03-02T02:27:22.016Z,985.9
2018-03-02T02:28:23.465Z,985.8
2018-03-02T02:29:24.984Z,985.8
2018-03-02T02:30:26.527Z,985.9
2018-03-02T02:31:28.085Z,985.8
2018-03-02T02:32:29.568Z,985.9
2018-03-02T02:33:30.993Z,985.8
2018-03-02T02:34:32.489Z,985.7
2018-03-02T02:35:33.960Z,985.8
2018-03-02T02:36:35.422Z,985.7
2018-03-02T02:37:36.916Z,985.8
2018-03-02T02:38:38.374Z,985.8
2018-03-02T02:39:39.953Z,985.7
2018-03-02T02:40:41.455Z,985.7
2018-03-02T02:41:42.958Z,985.7
2018-03-02T02:42:44.446Z,985.7
2018-03-02T02:43:45.928Z,985.7
2018-03-02T02:44:47.439Z,985.7
2018-03-02T02:45:48.889Z,985.7
2018-03-02T02:46:50.453Z,985.7
2018-03-02T02:47:51.982Z,985.7
2018-03-02T02:48:53.447Z,985.7
2018-03-02T02:49:54.948Z,985.7
2018-03-02T02:50:56.478Z,985.7
2018-03-02T02:52:01.729Z,985.7
2018-03-02T02:53:03.001Z,985.7
2018-03-02T02:54:04.538Z,985.7
2018-03-02T02:55:05.991Z,985.7
2018-03-02T02:56:07.503Z,985.6
2018-03-02T02:57:09.016Z,985.6
2018-03-02T02:58:10.532Z,985.6
2018-03-02T02:59:12.066Z,985.6
2018-03-02T03:00:13.604Z,985.6
2018-03-02T03:01:15.088Z,985.6
2018-03-02T03:02:16.610Z,985.6
2018-03-02T03:03:18.089Z,985.6
2018-03-02T03:04:19.656Z,985.6
2018-03-02T03:05:21.126Z,985.6
2018-03-02T03:06:22.612Z,985.6
2018-03-02T03:07:24.134Z,985.6
2018-03-02T03:08:25.685Z,985.5
2018-03-02T03:09:27.200Z,985.5
2018-03-02T03:10:28.728Z,985.5
2018-03-02T03:11:30.210Z,985.5
2018-03-02T03:12:31.702Z,985.5
2018-03-02T03:13:33.230Z,985.5
2018-03-02T03:14:34.741Z,985.5
2018-03-02T03:15:36.233Z,985.5
2018-03-02T03:16:37.709Z,985.5
2018-03-02T03:17:39.176Z,985.5
2018-03-02T03:18:40.712Z,985.5
2018-03-02T03:19:42.234Z,985.4
2018-03-02T03:20:43.710Z,985.4
2018-03-02T03:21:45.249Z,985.4
2018-03-02T03:22:46.709Z,985.4
2018-03-02T03:23:48.229Z,985.4
2018-03-02T03:24:49.759Z,985.4
2018-03-02T03:25:51.312Z,985.4
2018-03-02T03:26:52.795Z,985.4
2018-03-02T03:27:54.317Z,985.4
2018-03-02T03:28:55.826Z,985.4
2018-03-02T03:29:57.305Z,985.4
2018-03-02T03:30:58.755Z,985.4
2018-03-02T03:32:00.290Z,985.4
2018-03-02T03:33:01.779Z,985.4
2018-03-02T03:34:03.266Z,985.4
2018-03-02T03:35:04.780Z,985.4
2018-03-02T03:36:06.302Z,985.4
2018-03-02T03:37:07.857Z,985.3
2018-03-02T03:38:09.268Z,985.3
2018-03-02T03:39:10.773Z,985.3
2018-03-02T03:40:12.304Z,985.4
2018-03-02T03:41:13.846Z,985.3
2018-03-02T03:42:15.338Z,985.3
2018-03-02T03:43:16.801Z,985.3
2018-03-02T03:44:18.286Z,985.3
2018-03-02T03:45:19.741Z,985.3
2018-03-02T03:46:21.236Z,985.4
2018-03-02T03:47:22.708Z,985.4
2018-03-02T03:48:24.205Z,985.3
2018-03-02T03:49:25.768Z,985.4
2018-03-02T03:50:27.242Z,985.4
2018-03-02T03:51:28.731Z,985.3
2018-03-02T03:52:30.196Z,985.3
2018-03-02T03:53:31.694Z,985.3
2018-03-02T03:54:33.200Z,985.3
2018-03-02T03:55:34.782Z,985.3
2018-03-02T03:56:36.311Z,985.2
2018-03-02T03:57:37.799Z,985.2
2018-03-02T03:58:39.297Z,985.2
2018-03-02T03:59:40.808Z,985.2
2018-03-02T04:00:42.374Z,985.2
2018-03-02T04:01:43.933Z,985.1
2018-03-02T04:02:45.357Z,985.1
2018-03-02T04:03:46.953Z,985.1
2018-03-02T04:04:48.459Z,985.1
2018-03-02T04:05:50.014Z,985.1
2018-03-02T04:06:51.511Z,985.1
2018-03-02T04:07:53.001Z,985.1
2018-03-02T04:08:54.522Z,985.0
2018-03-02T04:09:56.045Z,985.1
2018-03-02T04:10:57.522Z,985.0
2018-03-02T04:11:59.049Z,985.0
2018-03-02T04:13:00.545Z,985.0
2018-03-02T04:14:02.029Z,984.9
2018-03-02T04:15:03.527Z,985.0
2018-03-02T04:16:05.028Z,985.0
2018-03-02T04:17:06.525Z,985.0
2018-03-02T04:18:08.033Z,985.0
2018-03-02T04:19:09.514Z,985.0
2018-03-02T04:20:10.979Z,985.0
2018-03-02T04:21:12.433Z,985.0
2018-03-02T04:22:13.978Z,985.0
2018-03-02T04:23:15.525Z,985.0
2018-03-02T04:24:17.002Z,985.0
2018-03-02T04:25:18.529Z,985.1
2018-03-02T04:26:20.012Z,985.1
2018-03-02T04:27:21.531Z,985.1
2018-03-02T04:28:22.933Z,985.1
2018-03-02T04:29:24.494Z,985.1
2018-03-02T04:30:25.979Z,985.1
2018-03-02T04:31:27.559Z,985.1
2018-03-02T04:32:29.006Z,985.1
2018-03-02T04:33:30.523Z,985.0
2018-03-02T04:34:31.980Z,985.1
2018-03-02T04:35:33.510Z,985.1
2018-03-02T04:36:35.028Z,985.0
2018-03-02T04:37:36.468Z,985.0
2018-03-02T04:38:38.007Z,985.0
2018-03-02T04:39:39.489Z,985.0
2018-03-02T04:40:40.966Z,985.0
2018-03-02T04:41:42.432Z,985.0
2018-03-02T04:42:43.950Z,985.0
2018-03-02T04:43:45.374Z,985.0
2018-03-02T04:44:46.872Z,985.0
2018-03-02T04:45:48.330Z,985.0
2018-03-02T04:46:49.788Z,985.0
2018-03-02T04:47:51.320Z,984.9
2018-03-02T04:48:52.816Z,984.9
2018-03-02T04:49:54.318Z,984.9
2018-03-02T04:50:55.787Z,984.9
2018-03-02T04:51:57.261Z,984.9
2018-03-02T04:52:58.838Z,984.9
2018-03-02T04:54:00.312Z,984.9
2018-03-02T04:55:01.795Z,984.9
2018-03-02T04:56:03.270Z,984.9
2018-03-02T04:57:04.751Z,984.8
2018-03-02T04:58:06.234Z,984.9
2018-03-02T04:59:07.673Z,984.8
2018-03-02T05:00:09.201Z,984.8
2018-03-02T05:01:10.688Z,984.8
2018-03-02T05:02:12.133Z,984.8
2018-03-02T05:03:13.639Z,984.8
2018-03-02T05:04:15.139Z,984.8
2018-03-02T05:05:16.657Z,984.7
2018-03-02T05:06:18.172Z,984.7
2018-03-02T05:07:19.679Z,984.6
2018-03-02T05:08:21.144Z,984.6
2018-03-02T05:09:22.650Z,984.6
2018-03-02T05:10:24.107Z,984.6
2018-03-02T05:11:25.578Z,984.6
2018-03-02T05:12:27.062Z,984.6
2018-03-02T05:13:28.531Z,984.5
2018-03-02T05:14:29.993Z,984.5
2018-03-02T05:15:31.491Z,984.5
2018-03-02T05:16:32.929Z,984.5
2018-03-02T05:17:34.423Z,984.5
2018-03-02T05:18:35.899Z,984.4
2018-03-02T05:19:37.420Z,984.5
2018-03-02T05:20:38.853Z,984.5
2018-03-02T05:21:40.274Z,984.5
2018-03-02T05:22:41.748Z,984.4
2018-03-02T05:23:43.257Z,984.4
2018-03-02T05:24:44.726Z,984.4
2018-03-02T05:25:46.240Z,984.4
2018-03-02T05:26:47.720Z,984.4
2018-03-02T05:27:49.168Z,984.3
2018-03-02T05:28:50.647Z,984.3
2018-03-02T05:29:52.204Z,984.3
2018-03-02T05:30:53.722Z,984.3
2018-03-02T05:31:55.200Z,984.3
2018-03-02T05:32:56.655Z,984.4
2018-03-02T05:33:58.157Z,984.4
2018-03-02T05:34:59.662Z,984.4
2018-03-02T05:36:01.139Z,984.4
2018-03-02T05:37:02.647Z,984.3
2018-03-02T05:38:04.185Z,984.4
2018-03-02T05:39:05.782Z,984.3
2018-03-02T05:40:07.382Z,984.3
2018-03-02T05:41:09.282Z,984.4
2018-03-02T05:42:10.836Z,984.4
2018-03-02T05:43:12.584Z,984.3
2018-03-02T05:44:14.301Z,984.3
2018-03-02T05:45:15.999Z,984.3
2018-03-02T05:46:17.481Z,984.3
2018-03-02T05:47:19.031Z,984.4
2018-03-02T05:48:20.499Z,984.3
2018-03-02T05:49:21.986Z,984.3
2018-03-02T05:50:23.503Z,984.3
2018-03-02T05:51:25.010Z,984.3
2018-03-02T05:52:26.495Z,984.3
2018-03-02T05:53:28.006Z,984.3
2018-03-02T05:54:29.531Z,984.3
2018-03-02T05:55:31.031Z,984.2
2018-03-02T05:56:32.532Z,984.2
2018-03-02T05:57:34.062Z,984.3
2018-03-02T05:58:35.547Z,984.2
2018-03-02T05:59:37.114Z,984.3
2018-03-02T06:00:38.626Z,984.2
2018-03-02T06:01:40.162Z,984.2
2018-03-02T06:02:41.667Z,984.2
2018-03-02T06:03:43.235Z,984.2
2018-03-02T06:04:44.716Z,984.2
2018-03-02T06:05:46.198Z,984.2
2018-03-02T06:06:47.707Z,984.3
2018-03-02T06:07:49.240Z,984.2
2018-03-02T06:08:50.739Z,984.3
2018-03-02T06:09:52.342Z,984.3
2018-03-02T06:10:53.816Z,984.2
2018-03-02T06:11:55.335Z,984.2
2018-03-02T06:12:56.980Z,984.2
2018-03-02T06:13:58.497Z,984.2
2018-03-02T06:15:00.073Z,984.2
2018-03-02T06:16:01.594Z,984.2
2018-03-02T06:17:03.773Z,984.2
2018-03-02T06:18:05.649Z,984.2
2018-03-02T06:19:07.175Z,984.2
2018-03-02T06:20:08.712Z,984.2
2018-03-02T06:21:10.462Z,984.1
2018-03-02T06:22:11.953Z,984.1
2018-03-02T06:23:13.965Z,984.1
2018-03-02T06:24:15.760Z,984.1
2018-03-02T06:25:17.483Z,984.1
2018-03-02T06:26:19.424Z,984.1
2018-03-02T06:27:20.910Z,984.1
2018-03-02T06:28:23.119Z,984.1
2018-03-02T06:30:05.530Z,984.0
2018-03-02T06:31:07.329Z,984.0
2018-03-02T06:32:09.107Z,984.1
2018-03-02T06:33:50.232Z,984.1
2018-03-02T06:34:51.693Z,984.2
2018-03-02T06:35:53.977Z,984.1
2018-03-02T06:36:55.272Z,984.2
2018-03-02T06:37:57.195Z,984.2
2018-03-02T06:38:58.734Z,984.3
2018-03-02T06:40:01.024Z,984.3
2018-03-02T06:41:02.821Z,984.3
2018-03-02T06:42:04.482Z,984.3
2018-03-02T06:43:06.292Z,984.2
2018-03-02T06:44:08.184Z,984.2
2018-03-02T06:45:09.669Z,984.1
2018-03-02T06:46:11.229Z,984.1
2018-03-02T06:47:13.665Z,984.1
2018-03-02T06:48:15.262Z,984.1
2018-03-02T06:49:17.054Z,984.1
2018-03-02T06:50:18.560Z,984.1
2018-03-02T06:51:20.145Z,984.1
2018-03-02T06:52:21.773Z,984.1
2018-03-02T06:53:23.436Z,984.1
2018-03-02T06:54:25.335Z,984.1
2018-03-02T06:55:26.920Z,984.2
2018-03-02T06:56:29.086Z,984.1
2018-03-02T06:57:30.699Z,984.1
2018-03-02T06:58:32.367Z,984.1
2018-03-02T06:59:34.015Z,983.9
2018-03-02T07:00:35.645Z,983.9
2018-03-02T07:01:37.236Z,983.9
2018-03-02T07:02:38.782Z,984.0
2018-03-02T07:03:40.332Z,984.0
2018-03-02T07:04:41.997Z,984.0
2018-03-02T07:05:43.921Z,983.9
2018-03-02T07:06:46.079Z,983.9
2018-03-02T07:07:47.985Z,983.8
2018-03-02T07:08:49.529Z,983.8
2018-03-02T07:09:51.237Z,983.8
2018-03-02T07:10:52.827Z,983.8
2018-03-02T07:11:54.496Z,983.9
2018-03-02T07:12:56.270Z,983.9
2018-03-02T07:13:58.037Z,983.9
2018-03-02T07:14:59.804Z,983.9
2018-03-02T07:16:01.318Z,983.9
2018-03-02T07:17:04.916Z,983.8
2018-03-02T07:18:06.602Z,983.8
2018-03-02T07:19:08.203Z,983.8
2018-03-02T07:20:09.675Z,983.7
2018-03-02T07:21:11.279Z,983.8
2018-03-02T07:22:12.862Z,983.8
2018-03-02T07:23:15.035Z,983.8
2018-03-02T07:24:15.942Z,983.9
2018-03-02T07:25:17.517Z,983.9
2018-03-02T07:26:19.126Z,983.9
2018-03-02T07:27:20.676Z,983.8
2018-03-02T07:28:22.212Z,983.8
2018-03-02T07:29:23.818Z,983.8
2018-03-02T07:30:25.369Z,983.8
2018-03-02T07:31:26.845Z,983.8
2018-03-02T07:32:28.360Z,983.8
2018-03-02T07:33:29.850Z,983.8
2018-03-02T07:34:31.360Z,983.8
2018-03-02T07:35:33.012Z,983.7
2018-03-02T07:36:34.482Z,983.7
2018-03-02T07:37:36.034Z,983.7
2018-03-02T07:38:37.512Z,983.6
2018-03-02T07:39:39.057Z,983.7
2018-03-02T07:40:40.636Z,983.7
2018-03-02T07:41:42.178Z,983.7
2018-03-02T07:42:43.666Z,983.6
2018-03-02T07:43:45.224Z,983.6
2018-03-02T07:44:46.804Z,983.6
2018-03-02T07:45:48.379Z,983.6
2018-03-02T07:46:49.969Z,983.5
2018-03-02T07:47:51.458Z,983.5
2018-03-02T07:48:52.955Z,983.5
2018-03-02T07:49:54.532Z,983.4
2018-03-02T07:50:56.081Z,983.4
2018-03-02T07:51:57.673Z,983.4
2018-03-02T07:52:59.268Z,983.4
2018-03-02T07:54:00.913Z,983.4
2018-03-02T07:55:02.502Z,983.4
2018-03-02T07:56:04.126Z,983.4
2018-03-02T07:57:05.807Z,983.4
2018-03-02T07:58:07.328Z,983.4
2018-03-02T07:59:08.879Z,983.4
2018-03-02T08:00:10.458Z,983.3
2018-03-02T08:01:12.179Z,983.4
2018-03-02T08:02:13.764Z,983.3
2018-03-02T08:03:15.288Z,983.3
2018-03-02T08:04:16.814Z,983.3
2018-03-02T08:05:18.460Z,983.3
2018-03-02T08:06:20.006Z,983.2
2018-03-02T08:07:21.506Z,983.2
2018-03-02T08:08:23.098Z,983.2
2018-03-02T08:09:24.679Z,983.2
2018-03-02T08:10:26.245Z,983.3
2018-03-02T08:11:27.794Z,983.3
2018-03-02T08:12:29.273Z,983.2
2018-03-02T08:13:30.773Z,983.2
2018-03-02T08:14:32.269Z,983.3
2018-03-02T08:15:34.741Z,983.3
2018-03-02T08:16:36.303Z,983.3
2018-03-02T08:17:37.812Z,983.2
2018-03-02T08:18:39.502Z,983.2
2018-03-02T08:19:41.082Z,983.2
2018-03-02T08:20:42.697Z,983.1
2018-03-02T08:21:44.191Z,983.1
2018-03-02T08:22:45.736Z,983.2
2018-03-02T08:23:47.263Z,983.2
2018-03-02T08:24:48.816Z,983.2
2018-03-02T08:25:50.412Z,983.1
2018-03-02T08:26:51.906Z,983.1
2018-03-02T08:27:53.442Z,983.1
2018-03-02T08:28:54.975Z,983.1
2018-03-02T08:29:56.498Z,983.0
2018-03-02T08:30:58.133Z,983.1
2018-03-02T08:31:59.675Z,983.1
2018-03-02T08:33:01.138Z,983.1
2018-03-02T08:34:02.693Z,983.1
2018-03-02T08:35:04.465Z,983.1
2018-03-02T08:36:05.999Z,983.1
2018-03-02T08:37:07.568Z,983.1
2018-03-02T08:38:09.064Z,983.1
2018-03-02T08:39:10.624Z,983.1
2018-03-02T08:40:12.213Z,983.1
2018-03-02T08:41:13.771Z,983.1
2018-03-02T08:42:15.213Z,983.1
2018-03-02T08:43:16.820Z,983.1
2018-03-02T08:44:18.364Z,983.1
2018-03-02T08:45:19.906Z,983.1
2018-03-02T08:46:21.434Z,983.1
2018-03-02T08:47:23.001Z,983.1
2018-03-02T08:48:24.648Z,983.0
2018-03-02T08:49:26.187Z,983.0
2018-03-02T08:50:27.698Z,983.1
2018-03-02T08:51:29.282Z,983.0
2018-03-02T08:52:30.792Z,983.1
2018-03-02T08:53:32.353Z,983.1
2018-03-02T08:54:33.869Z,983.1
2018-03-02T08:55:35.399Z,983.1
2018-03-02T08:56:36.979Z,983.0
2018-03-02T08:57:38.529Z,983.1
2018-03-02T08:58:40.095Z,983.0
2018-03-02T08:59:41.654Z,983.0
2018-03-02T09:00:43.280Z,983.0
2018-03-02T09:01:44.817Z,983.0
2018-03-02T09:02:46.532Z,982.9
2018-03-02T09:03:48.073Z,982.9
2018-03-02T09:04:49.644Z,982.9
2018-03-02T09:05:51.211Z,982.9
2018-03-02T09:06:52.730Z,982.9
2018-03-02T09:07:54.291Z,982.8
2018-03-02T09:08:55.884Z,982.9
2018-03-02T09:09:57.680Z,982.8
2018-03-02T09:10:59.350Z,982.8
2018-03-02T09:12:01.067Z,982.9
2018-03-02T09:13:02.816Z,982.8
2018-03-02T09:14:04.508Z,982.8
2018-03-02T09:15:06.160Z,982.8
2018-03-02T09:16:07.946Z,982.8
2018-03-02T09:17:09.774Z,982.8
2018-03-02T09:18:11.463Z,982.8
2018-03-02T09:19:13.314Z,982.8
2018-03-02T09:20:14.979Z,982.8
2018-03-02T09:21:16.606Z,982.8
2018-03-02T09:22:18.299Z,982.8
2018-03-02T09:23:20.357Z,982.8
2018-03-02T09:24:22.017Z,982.8
2018-03-02T09:25:23.524Z,982.8
2018-03-02T09:26:25.222Z,982.8
2018-03-02T09:27:27.484Z,982.8
2018-03-02T09:28:28.969Z,982.7
2018-03-02T09:29:30.555Z,982.7
2018-03-02T09:30:32.097Z,982.7
2018-03-02T09:31:33.673Z,982.7
2018-03-02T09:32:35.238Z,982.7
2018-03-02T09:33:36.889Z,982.7
2018-03-02T09:34:38.453Z,982.6
2018-03-02T09:35:39.995Z,982.6
2018-03-02T09:36:41.472Z,982.6
2018-03-02T09:37:43.029Z,982.6
2018-03-02T09:38:44.531Z,982.6
2018-03-02T09:39:46.057Z,982.5
2018-03-02T09:40:47.534Z,982.5
2018-03-02T09:41:49.045Z,982.4
2018-03-02T09:42:50.588Z,982.5
2018-03-02T09:43:52.075Z,982.5
2018-03-02T09:44:53.611Z,982.5
2018-03-02T09:45:55.095Z,982.6
2018-03-02T09:46:57.120Z,982.6
2018-03-02T09:47:58.662Z,982.5
2018-03-02T09:49:00.133Z,982.5
2018-03-02T09:50:01.695Z,982.4
2018-03-02T09:51:03.184Z,982.4
2018-03-02T09:52:04.696Z,982.4
2018-03-02T09:53:06.187Z,982.4
2018-03-02T09:54:07.790Z,982.4
2018-03-02T09:55:09.337Z,982.3
2018-03-02T09:56:10.847Z,982.2
2018-03-02T09:57:12.325Z,982.2
2018-03-02T09:58:13.876Z,982.2
2018-03-02T09:59:15.332Z,982.2
2018-03-02T10:00:16.881Z,982.2
2018-03-02T10:01:18.347Z,982.2
2018-03-02T10:02:19.849Z,982.2
2018-03-02T10:03:21.407Z,982.2
2018-03-02T10:04:22.921Z,982.2
2018-03-02T10:05:24.513Z,982.1
2018-03-02T10:06:26.034Z,982.1
2018-03-02T10:07:27.518Z,982.1
2018-03-02T10:08:29.038Z,982.1
2018-03-02T10:09:30.590Z,982.1
2018-03-02T10:10:32.024Z,982.1
2018-03-02T10:11:33.706Z,982.0
2018-03-02T10:12:35.200Z,982.0
2018-03-02T10:13:36.691Z,982.1
2018-03-02T10:14:38.198Z,982.1
2018-03-02T10:15:39.799Z,982.1
2018-03-02T10:16:41.329Z,982.2
2018-03-02T10:17:42.811Z,982.2
2018-03-02T10:18:44.400Z,982.1
2018-03-02T10:19:45.918Z,982.1
2018-03-02T10:20:47.591Z,982.1
2018-03-02T10:21:49.031Z,982.2
2018-03-02T10:22:50.567Z,982.2
2018-03-02T10:23:52.109Z,982.2
2018-03-02T10:24:53.711Z,982.2
2018-03-02T10:25:55.222Z,982.2
2018-03-02T10:26:56.799Z,982.1
2018-03-02T10:27:58.312Z,982.1
2018-03-02T10:28:59.851Z,982.1
2018-03-02T10:30:01.479Z,982.1
2018-03-02T10:31:03.043Z,982.1
2018-03-02T10:32:04.568Z,982.2
2018-03-02T10:33:06.105Z,982.1
2018-03-02T10:34:07.586Z,982.1
2018-03-02T10:35:09.151Z,982.1
2018-03-02T10:36:10.672Z,982.1
2018-03-02T10:37:12.215Z,982.1
2018-03-02T10:38:13.738Z,982.1
2018-03-02T10:39:15.227Z,982.1
2018-03-02T10:40:16.741Z,982.1
2018-03-02T10:41:18.264Z,982.2
2018-03-02T10:42:19.821Z,982.2
2018-03-02T10:43:21.292Z,982.1
2018-03-02T10:44:22.760Z,982.2
2018-03-02T10:45:24.349Z,982.2
2018-03-02T10:46:25.886Z,982.3
2018-03-02T10:47:27.387Z,982.2
2018-03-02T10:48:28.901Z,982.3
2018-03-02T10:49:30.418Z,982.2
2018-03-02T10:50:31.945Z,982.3
2018-03-02T10:51:33.465Z,982.3
2018-03-02T10:52:35.013Z,982.3
2018-03-02T10:53:36.526Z,982.2
2018-03-02T10:54:38.028Z,982.2
2018-03-02T10:55:39.541Z,982.2
2018-03-02T10:56:41.115Z,982.3
2018-03-02T10:57:42.841Z,982.2
2018-03-02T10:58:44.402Z,982.1
2018-03-02T10:59:45.930Z,982.1
2018-03-02T11:00:47.423Z,982.0
2018-03-02T11:01:49.011Z,982.1
2018-03-02T11:02:50.544Z,982.0
2018-03-02T11:03:52.093Z,982.0
2018-03-02T11:04:53.622Z,981.9
2018-03-02T11:05:55.156Z,981.9
2018-03-02T11:06:56.686Z,982.0
2018-03-02T11:07:58.273Z,982.1
2018-03-02T11:08:59.804Z,982.1
2018-03-02T11:10:01.311Z,982.1
2018-03-02T11:11:03.278Z,982.2
2018-03-02T11:12:04.820Z,982.1
2018-03-02T11:13:06.360Z,982.2
2018-03-02T11:14:07.877Z,982.0
2018-03-02T11:15:09.406Z,982.0
2018-03-02T11:16:10.953Z,982.1
2018-03-02T11:17:12.457Z,982.0
2018-03-02T11:18:13.975Z,982.1
2018-03-02T11:19:15.464Z,982.1
2018-03-02T11:20:16.949Z,982.1
2018-03-02T11:21:18.476Z,982.2
2018-03-02T11:22:19.994Z,982.2
2018-03-02T11:23:21.519Z,982.3
2018-03-02T11:24:23.014Z,982.2
2018-03-02T11:25:24.590Z,982.1
2018-03-02T11:26:26.186Z,982.1
2018-03-02T11:27:27.810Z,981.8
2018-03-02T11:28:29.344Z,982.1
2018-03-02T11:29:30.876Z,982.1
2018-03-02T11:30:32.370Z,981.8
2018-03-02T11:31:33.869Z,982.0
2018-03-02T11:32:35.411Z,982.1
2018-03-02T11:33:36.987Z,982.0
2018-03-02T11:34:38.619Z,982.1
2018-03-02T11:35:40.417Z,982.0
2018-03-02T11:36:42.075Z,982.0
2018-03-02T11:37:43.581Z,981.9
2018-03-02T11:38:45.057Z,982.0
2018-03-02T11:39:46.550Z,982.1
2018-03-02T11:40:48.032Z,982.0
2018-03-02T11:41:49.538Z,982.0
2018-03-02T11:42:51.031Z,982.0
2018-03-02T11:43:52.494Z,982.0
2018-03-02T11:44:54.033Z,982.0
2018-03-02T11:45:55.474Z,982.0
2018-03-02T11:46:56.922Z,982.0
2018-03-02T11:47:58.403Z,982.0
2018-03-02T11:48:59.868Z,982.0
2018-03-02T11:50:01.339Z,982.0
2018-03-02T11:51:02.770Z,981.9
2018-03-02T11:52:04.221Z,981.8
2018-03-02T11:53:05.700Z,981.8
2018-03-02T11:54:07.157Z,981.8
2018-03-02T11:55:08.622Z,981.8
2018-03-02T11:56:10.071Z,981.7
2018-03-02T11:57:11.530Z,981.8
2018-03-02T11:58:12.952Z,981.8
2018-03-02T11:59:14.419Z,981.7
2018-03-02T12:00:15.834Z,981.7
2018-03-02T12:01:17.338Z,981.6
2018-03-02T12:02:18.855Z,981.7
2018-03-02T12:03:20.327Z,981.7
2018-03-02T12:04:21.765Z,981.7
2018-03-02T12:05:23.215Z,981.6
2018-03-02T12:06:24.700Z,981.7
2018-03-02T12:07:26.151Z,981.6
2018-03-02T12:08:28.067Z,981.5
2018-03-02T12:09:29.532Z,981.4
2018-03-02T12:10:30.953Z,981.4
2018-03-02T12:11:32.372Z,981.3
2018-03-02T12:12:33.803Z,981.2
2018-03-02T12:13:35.281Z,981.2
2018-03-02T12:14:36.726Z,981.2
2018-03-02T12:15:38.162Z,981.2
2018-03-02T12:16:39.583Z,981.1
2018-03-02T12:17:41.023Z,981.1
2018-03-02T12:18:42.455Z,981.0
2018-03-02T12:19:43.912Z,981.0
2018-03-02T12:20:45.365Z,981.0
2018-03-02T12:21:46.838Z,981.0
2018-03-02T12:22:48.374Z,981.0
2018-03-02T12:23:49.876Z,981.0
2018-03-02T12:24:51.362Z,980.9
2018-03-02T12:25:52.821Z,980.9
2018-03-02T12:26:54.306Z,980.9
2018-03-02T12:27:55.814Z,980.8
2018-03-02T12:28:57.297Z,980.9
2018-03-02T12:29:58.838Z,980.9
2018-03-02T12:31:00.314Z,980.9
2018-03-02T12:32:01.784Z,980.8
2018-03-02T12:33:03.228Z,980.8
2018-03-02T12:34:04.727Z,980.8
2018-03-02T12:35:06.222Z,980.8
2018-03-02T12:36:07.820Z,980.8
2018-03-02T12:37:09.271Z,980.8
2018-03-02T12:38:10.759Z,980.8
2018-03-02T12:39:12.279Z,980.8
2018-03-02T12:40:13.780Z,980.8
2018-03-02T12:41:15.244Z,980.8
2018-03-02T12:42:16.742Z,980.7
2018-03-02T12:43:18.175Z,980.7
2018-03-02T12:44:19.593Z,980.7
2018-03-02T12:45:21.016Z,980.7
2018-03-02T12:46:22.436Z,980.7
2018-03-02T12:47:23.850Z,980.7
2018-03-02T12:48:25.274Z,980.7
2018-03-02T12:49:26.730Z,980.7
2018-03-02T12:50:28.146Z,980.7
2018-03-02T12:51:29.720Z,980.7
2018-03-02T12:52:31.151Z,980.7
2018-03-02T12:53:32.571Z,980.7
2018-03-02T12:54:34.124Z,980.7
2018-03-02T12:55:35.428Z,980.7
2018-03-02T12:56:36.892Z,980.8
2018-03-02T12:57:38.367Z,980.7
2018-03-02T12:58:39.882Z,980.7
2018-03-02T12:59:41.405Z,980.7
2018-03-02T13:00:42.868Z,980.8
2018-03-02T13:01:44.371Z,980.7
2018-03-02T13:02:45.838Z,980.7
2018-03-02T13:03:47.286Z,980.7
2018-03-02T13:04:48.789Z,980.7
2018-03-02T13:05:50.246Z,980.7
2018-03-02T13:06:51.641Z,980.7
2018-03-02T13:07:53.171Z,980.7
2018-03-02T13:08:55.630Z,980.7
2018-03-02T13:09:57.320Z,980.8
2018-03-02T13:10:58.937Z,980.8
2018-03-02T13:12:00.456Z,980.8
2018-03-02T13:13:01.986Z,980.8
2018-03-02T13:14:03.637Z,980.7